sensor_id;sensor_type;location;lat;lon;timestamp;temperature;humidity
52103;DHT22;38101;53.126;6.878;2023-11-19T00:00:18;10.40;99.90
52103;DHT22;38101;53.126;6.878;2023-11-19T00:02:44;10.40;99.90
52103;DHT22;38101;53.126;6.878;2023-11-19T00:05:10;10.50;99.90
52103;DHT22;38101;53.126;6.878;2023-11-19T00:07:39;10.50;99.90
52103;DHT22;38101;53.126;6.878;2023-11-19T00:10:13;10.50;99.90
52103;DHT22;38101;53.126;6.878;2023-11-19T00:12:43;10.60;99.90
52103;DHT22;38101;53.126;6.878;2023-11-19T00:15:10;10.60;99.90
52103;DHT22;38101;53.126;6.878;2023-11-19T00:17:40;10.60;99.90
52103;DHT22;38101;53.126;6.878;2023-11-19T00:20:13;10.70;99.90
52103;DHT22;38101;53.126;6.878;2023-11-19T00:22:40;10.70;99.90
52103;DHT22;38101;53.126;6.878;2023-11-19T00:25:06;10.70;99.90
52103;DHT22;38101;53.126;6.878;2023-11-19T00:27:32;10.70;99.90
52103;DHT22;38101;53.126;6.878;2023-11-19T00:29:57;10.70;99.90
52103;DHT22;38101;53.126;6.878;2023-11-19T00:32:23;10.80;99.90
52103;DHT22;38101;53.126;6.878;2023-11-19T00:34:50;10.80;99.90
52103;DHT22;38101;53.126;6.878;2023-11-19T00:37:15;10.80;99.90
52103;DHT22;38101;53.126;6.878;2023-11-19T00:39:44;10.90;99.90
52103;DHT22;38101;53.126;6.878;2023-11-19T00:42:11;10.90;99.90
52103;DHT22;38101;53.126;6.878;2023-11-19T00:44:37;10.90;99.90
52103;DHT22;38101;53.126;6.878;2023-11-19T00:47:03;11.00;99.90
52103;DHT22;38101;53.126;6.878;2023-11-19T00:49:28;11.00;99.90
52103;DHT22;38101;53.126;6.878;2023-11-19T00:51:55;11.10;99.90
52103;DHT22;38101;53.126;6.878;2023-11-19T00:54:21;11.20;99.90
52103;DHT22;38101;53.126;6.878;2023-11-19T00:56:46;11.30;99.90
52103;DHT22;38101;53.126;6.878;2023-11-19T00:59:12;11.30;99.90
52103;DHT22;38101;53.126;6.878;2023-11-19T01:01:39;11.30;99.90
52103;DHT22;38101;53.126;6.878;2023-11-19T01:04:05;11.30;99.90
52103;DHT22;38101;53.126;6.878;2023-11-19T01:06:32;11.30;99.90
52103;DHT22;38101;53.126;6.878;2023-11-19T01:08:58;11.30;99.90
52103;DHT22;38101;53.126;6.878;2023-11-19T01:11:27;11.30;99.90
52103;DHT22;38101;53.126;6.878;2023-11-19T01:13:53;11.30;99.90
52103;DHT22;38101;53.126;6.878;2023-11-19T01:16:19;11.30;99.90
52103;DHT22;38101;53.126;6.878;2023-11-19T01:18:49;11.40;99.90
52103;DHT22;38101;53.126;6.878;2023-11-19T01:21:15;11.40;99.90
52103;DHT22;38101;53.126;6.878;2023-11-19T01:23:42;11.40;99.90
52103;DHT22;38101;53.126;6.878;2023-11-19T01:26:11;11.40;99.90
52103;DHT22;38101;53.126;6.878;2023-11-19T01:28:41;11.40;99.90
52103;DHT22;38101;53.126;6.878;2023-11-19T01:31:15;11.50;99.90
52103;DHT22;38101;53.126;6.878;2023-11-19T01:33:41;11.50;99.90
52103;DHT22;38101;53.126;6.878;2023-11-19T01:36:07;11.50;99.90
52103;DHT22;38101;53.126;6.878;2023-11-19T01:38:34;11.50;99.90
52103;DHT22;38101;53.126;6.878;2023-11-19T01:41:00;11.50;99.90
52103;DHT22;38101;53.126;6.878;2023-11-19T01:43:38;11.60;99.90
52103;DHT22;38101;53.126;6.878;2023-11-19T01:46:07;11.70;99.90
52103;DHT22;38101;53.126;6.878;2023-11-19T01:48:35;11.70;99.90
52103;DHT22;38101;53.126;6.878;2023-11-19T01:51:03;11.70;99.90
52103;DHT22;38101;53.126;6.878;2023-11-19T01:53:30;11.80;99.90
52103;DHT22;38101;53.126;6.878;2023-11-19T01:55:56;11.80;99.90
52103;DHT22;38101;53.126;6.878;2023-11-19T01:58:22;11.90;99.90
52103;DHT22;38101;53.126;6.878;2023-11-19T02:00:48;11.90;99.90
52103;DHT22;38101;53.126;6.878;2023-11-19T02:03:14;12.00;99.90
52103;DHT22;38101;53.126;6.878;2023-11-19T02:05:41;12.00;99.90
52103;DHT22;38101;53.126;6.878;2023-11-19T02:08:07;12.00;99.90
52103;DHT22;38101;53.126;6.878;2023-11-19T02:10:33;12.00;99.90
52103;DHT22;38101;53.126;6.878;2023-11-19T02:13:02;12.00;99.90
52103;DHT22;38101;53.126;6.878;2023-11-19T02:15:31;12.00;99.90
52103;DHT22;38101;53.126;6.878;2023-11-19T02:17:56;12.00;99.90
52103;DHT22;38101;53.126;6.878;2023-11-19T02:20:22;12.00;99.90
52103;DHT22;38101;53.126;6.878;2023-11-19T02:22:48;12.00;99.90
52103;DHT22;38101;53.126;6.878;2023-11-19T02:25:31;12.10;99.90
52103;DHT22;38101;53.126;6.878;2023-11-19T02:28:02;12.10;99.90
52103;DHT22;38101;53.126;6.878;2023-11-19T02:30:29;12.10;99.90
52103;DHT22;38101;53.126;6.878;2023-11-19T02:33:01;12.00;99.90
52103;DHT22;38101;53.126;6.878;2023-11-19T02:35:31;12.10;99.90
52103;DHT22;38101;53.126;6.878;2023-11-19T02:37:58;12.10;99.90
52103;DHT22;38101;53.126;6.878;2023-11-19T02:40:29;12.20;99.90
52103;DHT22;38101;53.126;6.878;2023-11-19T02:42:55;12.10;99.90
52103;DHT22;38101;53.126;6.878;2023-11-19T02:45:25;12.00;99.90
52103;DHT22;38101;53.126;6.878;2023-11-19T02:47:51;12.10;99.90
52103;DHT22;38101;53.126;6.878;2023-11-19T02:50:20;12.10;99.90
52103;DHT22;38101;53.126;6.878;2023-11-19T02:52:53;12.40;99.90
52103;DHT22;38101;53.126;6.878;2023-11-19T02:55:19;12.30;99.90
52103;DHT22;38101;53.126;6.878;2023-11-19T02:57:45;12.30;99.90
52103;DHT22;38101;53.126;6.878;2023-11-19T03:00:21;12.30;99.90
52103;DHT22;38101;53.126;6.878;2023-11-19T03:02:53;12.30;99.90
52103;DHT22;38101;53.126;6.878;2023-11-19T03:05:26;12.30;99.90
52103;DHT22;38101;53.126;6.878;2023-11-19T03:07:52;12.20;99.90
52103;DHT22;38101;53.126;6.878;2023-11-19T03:10:18;12.20;99.90
52103;DHT22;38101;53.126;6.878;2023-11-19T03:12:44;12.20;99.90
52103;DHT22;38101;53.126;6.878;2023-11-19T03:15:13;12.20;99.90
52103;DHT22;38101;53.126;6.878;2023-11-19T03:17:39;12.30;99.90
52103;DHT22;38101;53.126;6.878;2023-11-19T03:20:06;12.30;99.90
52103;DHT22;38101;53.126;6.878;2023-11-19T03:22:36;12.50;99.90
52103;DHT22;38101;53.126;6.878;2023-11-19T03:25:02;12.50;99.90
52103;DHT22;38101;53.126;6.878;2023-11-19T03:27:27;12.50;99.90
52103;DHT22;38101;53.126;6.878;2023-11-19T03:29:53;12.60;99.90
52103;DHT22;38101;53.126;6.878;2023-11-19T03:32:19;12.60;99.90
52103;DHT22;38101;53.126;6.878;2023-11-19T03:34:45;12.60;99.90
52103;DHT22;38101;53.126;6.878;2023-11-19T03:37:11;12.60;99.90
52103;DHT22;38101;53.126;6.878;2023-11-19T03:39:37;12.50;99.90
52103;DHT22;38101;53.126;6.878;2023-11-19T03:42:02;12.60;99.90
52103;DHT22;38101;53.126;6.878;2023-11-19T03:44:28;12.60;99.90
52103;DHT22;38101;53.126;6.878;2023-11-19T03:46:54;12.50;99.90
52103;DHT22;38101;53.126;6.878;2023-11-19T03:49:20;12.50;99.90
52103;DHT22;38101;53.126;6.878;2023-11-19T03:51:45;12.40;99.90
52103;DHT22;38101;53.126;6.878;2023-11-19T03:54:11;12.40;99.90
52103;DHT22;38101;53.126;6.878;2023-11-19T03:56:37;12.40;99.90
52103;DHT22;38101;53.126;6.878;2023-11-19T03:59:03;12.30;99.90
52103;DHT22;38101;53.126;6.878;2023-11-19T04:01:28;12.30;99.90
52103;DHT22;38101;53.126;6.878;2023-11-19T04:03:54;12.40;99.90
52103;DHT22;38101;53.126;6.878;2023-11-19T04:06:21;12.40;99.90
52103;DHT22;38101;53.126;6.878;2023-11-19T04:08:47;12.40;99.90
52103;DHT22;38101;53.126;6.878;2023-11-19T04:11:12;12.60;99.90
52103;DHT22;38101;53.126;6.878;2023-11-19T04:13:38;12.60;99.90
52103;DHT22;38101;53.126;6.878;2023-11-19T04:16:04;12.50;99.90
52103;DHT22;38101;53.126;6.878;2023-11-19T04:18:30;12.60;99.90
52103;DHT22;38101;53.126;6.878;2023-11-19T04:20:57;12.60;99.90
52103;DHT22;38101;53.126;6.878;2023-11-19T04:23:24;12.60;99.90
52103;DHT22;38101;53.126;6.878;2023-11-19T04:25:50;12.60;99.90
52103;DHT22;38101;53.126;6.878;2023-11-19T04:28:16;12.50;99.90
52103;DHT22;38101;53.126;6.878;2023-11-19T04:30:41;12.60;99.90
52103;DHT22;38101;53.126;6.878;2023-11-19T04:33:07;12.60;99.90
52103;DHT22;38101;53.126;6.878;2023-11-19T04:35:33;12.50;99.90
52103;DHT22;38101;53.126;6.878;2023-11-19T04:37:58;12.40;99.90
52103;DHT22;38101;53.126;6.878;2023-11-19T04:40:24;12.50;99.90
52103;DHT22;38101;53.126;6.878;2023-11-19T04:42:50;12.50;99.90
52103;DHT22;38101;53.126;6.878;2023-11-19T04:45:16;12.50;99.90
52103;DHT22;38101;53.126;6.878;2023-11-19T04:47:42;12.40;99.90
52103;DHT22;38101;53.126;6.878;2023-11-19T04:50:08;12.40;99.90
52103;DHT22;38101;53.126;6.878;2023-11-19T04:52:38;12.40;99.90
52103;DHT22;38101;53.126;6.878;2023-11-19T04:55:10;12.50;99.90
52103;DHT22;38101;53.126;6.878;2023-11-19T04:57:37;12.50;99.90
52103;DHT22;38101;53.126;6.878;2023-11-19T05:00:04;12.50;99.90
52103;DHT22;38101;53.126;6.878;2023-11-19T05:02:30;12.50;99.90
52103;DHT22;38101;53.126;6.878;2023-11-19T05:04:56;12.40;99.90
52103;DHT22;38101;53.126;6.878;2023-11-19T05:07:22;12.50;99.90
52103;DHT22;38101;53.126;6.878;2023-11-19T05:09:47;12.50;99.90
52103;DHT22;38101;53.126;6.878;2023-11-19T05:12:13;12.40;99.90
52103;DHT22;38101;53.126;6.878;2023-11-19T05:14:39;12.30;99.90
52103;DHT22;38101;53.126;6.878;2023-11-19T05:17:04;12.30;99.90
52103;DHT22;38101;53.126;6.878;2023-11-19T05:19:30;12.40;99.90
52103;DHT22;38101;53.126;6.878;2023-11-19T05:21:56;12.40;99.90
52103;DHT22;38101;53.126;6.878;2023-11-19T05:24:22;12.30;99.90
52103;DHT22;38101;53.126;6.878;2023-11-19T05:26:48;12.30;99.90
52103;DHT22;38101;53.126;6.878;2023-11-19T05:29:15;12.40;99.90
52103;DHT22;38101;53.126;6.878;2023-11-19T05:31:41;12.40;99.90
52103;DHT22;38101;53.126;6.878;2023-11-19T05:34:07;12.30;99.90
52103;DHT22;38101;53.126;6.878;2023-11-19T05:36:32;12.30;99.90
52103;DHT22;38101;53.126;6.878;2023-11-19T05:38:58;12.30;99.90
52103;DHT22;38101;53.126;6.878;2023-11-19T05:41:24;12.40;99.90
52103;DHT22;38101;53.126;6.878;2023-11-19T05:43:50;12.40;99.90
52103;DHT22;38101;53.126;6.878;2023-11-19T05:46:15;12.30;99.90
52103;DHT22;38101;53.126;6.878;2023-11-19T05:48:42;12.30;99.90
52103;DHT22;38101;53.126;6.878;2023-11-19T05:51:08;12.40;99.90
52103;DHT22;38101;53.126;6.878;2023-11-19T05:53:33;12.30;99.90
52103;DHT22;38101;53.126;6.878;2023-11-19T05:55:59;12.30;99.90
52103;DHT22;38101;53.126;6.878;2023-11-19T05:58:29;12.30;99.90
52103;DHT22;38101;53.126;6.878;2023-11-19T06:00:56;12.30;99.90
52103;DHT22;38101;53.126;6.878;2023-11-19T06:03:22;12.30;99.90
52103;DHT22;38101;53.126;6.878;2023-11-19T06:05:48;12.30;99.90
52103;DHT22;38101;53.126;6.878;2023-11-19T06:08:14;12.30;99.90
52103;DHT22;38101;53.126;6.878;2023-11-19T06:10:44;12.30;99.90
52103;DHT22;38101;53.126;6.878;2023-11-19T06:13:12;12.30;99.90
52103;DHT22;38101;53.126;6.878;2023-11-19T06:15:37;12.30;99.90
52103;DHT22;38101;53.126;6.878;2023-11-19T06:18:03;12.20;99.90
52103;DHT22;38101;53.126;6.878;2023-11-19T06:20:33;12.40;99.90
52103;DHT22;38101;53.126;6.878;2023-11-19T06:22:59;12.20;99.90
52103;DHT22;38101;53.126;6.878;2023-11-19T06:25:25;12.20;99.90
52103;DHT22;38101;53.126;6.878;2023-11-19T06:27:52;12.20;99.90
52103;DHT22;38101;53.126;6.878;2023-11-19T06:30:18;12.20;99.90
52103;DHT22;38101;53.126;6.878;2023-11-19T06:32:44;12.20;99.90
52103;DHT22;38101;53.126;6.878;2023-11-19T06:35:09;12.20;99.90
52103;DHT22;38101;53.126;6.878;2023-11-19T06:37:38;12.10;99.90
52103;DHT22;38101;53.126;6.878;2023-11-19T06:40:04;12.10;99.90
52103;DHT22;38101;53.126;6.878;2023-11-19T06:42:30;12.10;99.90
52103;DHT22;38101;53.126;6.878;2023-11-19T06:44:56;12.10;99.90
52103;DHT22;38101;53.126;6.878;2023-11-19T06:47:28;12.10;99.90
52103;DHT22;38101;53.126;6.878;2023-11-19T06:49:54;12.20;99.90
52103;DHT22;38101;53.126;6.878;2023-11-19T06:52:20;12.00;99.90
52103;DHT22;38101;53.126;6.878;2023-11-19T06:54:46;12.00;99.90
52103;DHT22;38101;53.126;6.878;2023-11-19T06:57:12;12.10;99.90
52103;DHT22;38101;53.126;6.878;2023-11-19T06:59:38;12.10;99.90
52103;DHT22;38101;53.126;6.878;2023-11-19T07:02:05;12.10;99.90
52103;DHT22;38101;53.126;6.878;2023-11-19T07:04:31;12.00;99.90
52103;DHT22;38101;53.126;6.878;2023-11-19T07:06:57;12.00;99.90
52103;DHT22;38101;53.126;6.878;2023-11-19T07:09:22;11.90;99.90
52103;DHT22;38101;53.126;6.878;2023-11-19T07:11:49;11.90;99.90
52103;DHT22;38101;53.126;6.878;2023-11-19T07:14:17;11.90;99.90
52103;DHT22;38101;53.126;6.878;2023-11-19T07:16:43;12.00;99.90
52103;DHT22;38101;53.126;6.878;2023-11-19T07:19:09;12.00;99.90
52103;DHT22;38101;53.126;6.878;2023-11-19T07:21:35;12.00;99.90
52103;DHT22;38101;53.126;6.878;2023-11-19T07:24:05;12.10;99.90
52103;DHT22;38101;53.126;6.878;2023-11-19T07:26:31;11.90;99.90
52103;DHT22;38101;53.126;6.878;2023-11-19T07:28:56;12.00;99.90
52103;DHT22;38101;53.126;6.878;2023-11-19T07:31:23;12.00;99.90
52103;DHT22;38101;53.126;6.878;2023-11-19T07:33:49;11.90;99.90
52103;DHT22;38101;53.126;6.878;2023-11-19T07:36:15;11.90;99.90
52103;DHT22;38101;53.126;6.878;2023-11-19T07:38:40;11.80;99.90
52103;DHT22;38101;53.126;6.878;2023-11-19T07:41:06;11.80;99.90
52103;DHT22;38101;53.126;6.878;2023-11-19T07:43:34;11.80;99.90
52103;DHT22;38101;53.126;6.878;2023-11-19T07:46:00;11.90;99.90
52103;DHT22;38101;53.126;6.878;2023-11-19T07:48:25;11.90;99.90
52103;DHT22;38101;53.126;6.878;2023-11-19T07:50:52;11.90;99.90
52103;DHT22;38101;53.126;6.878;2023-11-19T07:53:19;11.90;99.90
52103;DHT22;38101;53.126;6.878;2023-11-19T07:55:45;11.90;99.90
52103;DHT22;38101;53.126;6.878;2023-11-19T07:58:11;11.80;99.90
52103;DHT22;38101;53.126;6.878;2023-11-19T08:00:37;11.90;99.90
52103;DHT22;38101;53.126;6.878;2023-11-19T08:03:04;11.90;99.90
52103;DHT22;38101;53.126;6.878;2023-11-19T08:05:31;11.80;99.90
52103;DHT22;38101;53.126;6.878;2023-11-19T08:07:57;11.80;99.90
52103;DHT22;38101;53.126;6.878;2023-11-19T08:10:24;11.80;99.90
52103;DHT22;38101;53.126;6.878;2023-11-19T08:12:49;11.80;99.90
52103;DHT22;38101;53.126;6.878;2023-11-19T08:15:15;11.90;99.90
52103;DHT22;38101;53.126;6.878;2023-11-19T08:17:42;11.90;99.90
52103;DHT22;38101;53.126;6.878;2023-11-19T08:20:09;11.90;99.90
52103;DHT22;38101;53.126;6.878;2023-11-19T08:22:38;11.90;99.90
52103;DHT22;38101;53.126;6.878;2023-11-19T08:25:05;12.00;99.90
52103;DHT22;38101;53.126;6.878;2023-11-19T08:27:31;12.20;99.90
52103;DHT22;38101;53.126;6.878;2023-11-19T08:29:57;12.10;99.90
52103;DHT22;38101;53.126;6.878;2023-11-19T08:32:24;12.10;99.90
52103;DHT22;38101;53.126;6.878;2023-11-19T08:34:49;12.10;99.90
52103;DHT22;38101;53.126;6.878;2023-11-19T08:37:15;12.00;99.90
52103;DHT22;38101;53.126;6.878;2023-11-19T08:39:43;12.10;99.90
52103;DHT22;38101;53.126;6.878;2023-11-19T08:42:09;12.10;99.90
52103;DHT22;38101;53.126;6.878;2023-11-19T08:44:34;12.10;99.90
52103;DHT22;38101;53.126;6.878;2023-11-19T08:47:00;12.10;99.90
52103;DHT22;38101;53.126;6.878;2023-11-19T08:49:26;12.10;99.90
52103;DHT22;38101;53.126;6.878;2023-11-19T08:51:51;12.10;99.90
52103;DHT22;38101;53.126;6.878;2023-11-19T08:54:17;12.10;99.90
52103;DHT22;38101;53.126;6.878;2023-11-19T08:56:43;12.20;99.90
52103;DHT22;38101;53.126;6.878;2023-11-19T08:59:08;12.20;99.90
52103;DHT22;38101;53.126;6.878;2023-11-19T09:01:34;12.10;99.90
52103;DHT22;38101;53.126;6.878;2023-11-19T09:04:00;12.10;99.90
52103;DHT22;38101;53.126;6.878;2023-11-19T09:06:25;12.00;99.90
52103;DHT22;38101;53.126;6.878;2023-11-19T09:08:51;12.00;99.90
52103;DHT22;38101;53.126;6.878;2023-11-19T09:11:17;12.00;99.90
52103;DHT22;38101;53.126;6.878;2023-11-19T09:13:43;12.00;99.90
52103;DHT22;38101;53.126;6.878;2023-11-19T09:16:12;11.90;99.90
52103;DHT22;38101;53.126;6.878;2023-11-19T09:18:45;11.90;99.90
52103;DHT22;38101;53.126;6.878;2023-11-19T09:21:11;11.90;99.90
52103;DHT22;38101;53.126;6.878;2023-11-19T09:23:37;11.80;99.90
52103;DHT22;38101;53.126;6.878;2023-11-19T09:26:05;11.80;99.90
52103;DHT22;38101;53.126;6.878;2023-11-19T09:28:31;11.80;99.90
52103;DHT22;38101;53.126;6.878;2023-11-19T09:30:57;11.70;99.90
52103;DHT22;38101;53.126;6.878;2023-11-19T09:33:23;11.60;99.90
52103;DHT22;38101;53.126;6.878;2023-11-19T09:35:48;11.70;99.90
52103;DHT22;38101;53.126;6.878;2023-11-19T09:38:17;11.70;99.90
52103;DHT22;38101;53.126;6.878;2023-11-19T09:40:43;11.70;99.90
52103;DHT22;38101;53.126;6.878;2023-11-19T09:43:09;11.80;99.90
52103;DHT22;38101;53.126;6.878;2023-11-19T09:45:48;11.90;99.90
52103;DHT22;38101;53.126;6.878;2023-11-19T09:48:18;12.00;99.90
52103;DHT22;38101;53.126;6.878;2023-11-19T09:50:47;12.10;99.90
52103;DHT22;38101;53.126;6.878;2023-11-19T09:53:14;12.20;99.90
52103;DHT22;38101;53.126;6.878;2023-11-19T09:55:40;12.20;99.90
52103;DHT22;38101;53.126;6.878;2023-11-19T09:58:07;12.30;99.90
52103;DHT22;38101;53.126;6.878;2023-11-19T10:00:34;12.20;99.90
52103;DHT22;38101;53.126;6.878;2023-11-19T10:03:00;12.30;99.90
52103;DHT22;38101;53.126;6.878;2023-11-19T10:05:26;12.30;99.90
52103;DHT22;38101;53.126;6.878;2023-11-19T10:07:52;12.30;99.90
52103;DHT22;38101;53.126;6.878;2023-11-19T10:10:18;12.30;99.90
52103;DHT22;38101;53.126;6.878;2023-11-19T10:12:50;12.30;99.90
52103;DHT22;38101;53.126;6.878;2023-11-19T10:15:23;12.20;99.90
52103;DHT22;38101;53.126;6.878;2023-11-19T10:17:58;12.20;99.90
52103;DHT22;38101;53.126;6.878;2023-11-19T10:20:24;12.20;99.90
52103;DHT22;38101;53.126;6.878;2023-11-19T10:22:54;12.20;99.90
52103;DHT22;38101;53.126;6.878;2023-11-19T10:25:27;12.30;99.90
52103;DHT22;38101;53.126;6.878;2023-11-19T10:27:54;12.30;99.90
52103;DHT22;38101;53.126;6.878;2023-11-19T10:33:11;12.30;99.90
52103;DHT22;38101;53.126;6.878;2023-11-19T10:35:54;12.30;99.90
52103;DHT22;38101;53.126;6.878;2023-11-19T10:38:22;12.30;99.90
52103;DHT22;38101;53.126;6.878;2023-11-19T10:40:52;12.30;99.90
52103;DHT22;38101;53.126;6.878;2023-11-19T10:43:20;12.20;99.90
52103;DHT22;38101;53.126;6.878;2023-11-19T10:45:50;12.30;99.90
52103;DHT22;38101;53.126;6.878;2023-11-19T10:48:17;12.20;99.90
52103;DHT22;38101;53.126;6.878;2023-11-19T10:50:44;12.20;99.90
52103;DHT22;38101;53.126;6.878;2023-11-19T10:53:11;12.30;99.90
52103;DHT22;38101;53.126;6.878;2023-11-19T10:55:41;12.30;99.90
52103;DHT22;38101;53.126;6.878;2023-11-19T10:58:10;12.20;99.90
52103;DHT22;38101;53.126;6.878;2023-11-19T11:00:46;12.20;99.90
52103;DHT22;38101;53.126;6.878;2023-11-19T11:03:17;12.20;99.90
52103;DHT22;38101;53.126;6.878;2023-11-19T11:05:46;12.10;99.90
52103;DHT22;38101;53.126;6.878;2023-11-19T11:08:13;12.10;99.90
52103;DHT22;38101;53.126;6.878;2023-11-19T11:10:54;12.10;99.90
52103;DHT22;38101;53.126;6.878;2023-11-19T11:13:22;12.20;99.90
52103;DHT22;38101;53.126;6.878;2023-11-19T11:15:49;12.10;99.90
52103;DHT22;38101;53.126;6.878;2023-11-19T11:18:16;12.10;99.90
52103;DHT22;38101;53.126;6.878;2023-11-19T11:20:46;12.10;99.90
52103;DHT22;38101;53.126;6.878;2023-11-19T11:26:29;12.20;99.90
52103;DHT22;38101;53.126;6.878;2023-11-19T11:37:35;12.50;99.90
52103;DHT22;38101;53.126;6.878;2023-11-19T11:40:03;12.50;99.90
52103;DHT22;38101;53.126;6.878;2023-11-19T11:42:36;12.50;99.90
52103;DHT22;38101;53.126;6.878;2023-11-19T11:50:28;12.80;99.90
52103;DHT22;38101;53.126;6.878;2023-11-19T11:55:53;12.80;99.90
52103;DHT22;38101;53.126;6.878;2023-11-19T11:58:29;12.80;99.90
52103;DHT22;38101;53.126;6.878;2023-11-19T12:00:57;12.70;99.90
52103;DHT22;38101;53.126;6.878;2023-11-19T12:03:23;12.50;99.90
52103;DHT22;38101;53.126;6.878;2023-11-19T12:05:52;12.40;99.90
52103;DHT22;38101;53.126;6.878;2023-11-19T12:08:27;12.40;99.90
52103;DHT22;38101;53.126;6.878;2023-11-19T12:10:54;12.40;99.90
52103;DHT22;38101;53.126;6.878;2023-11-19T12:13:23;12.40;99.90
52103;DHT22;38101;53.126;6.878;2023-11-19T12:18:27;12.30;99.90
52103;DHT22;38101;53.126;6.878;2023-11-19T12:20:53;12.40;99.90
52103;DHT22;38101;53.126;6.878;2023-11-19T12:23:18;12.40;99.90
52103;DHT22;38101;53.126;6.878;2023-11-19T12:25:44;12.40;99.90
52103;DHT22;38101;53.126;6.878;2023-11-19T12:28:13;12.30;99.90
52103;DHT22;38101;53.126;6.878;2023-11-19T12:30:39;12.60;99.90
52103;DHT22;38101;53.126;6.878;2023-11-19T12:33:09;12.70;99.90
52103;DHT22;38101;53.126;6.878;2023-11-19T12:35:45;12.70;99.90
52103;DHT22;38101;53.126;6.878;2023-11-19T12:38:22;12.60;99.90
52103;DHT22;38101;53.126;6.878;2023-11-19T12:41:09;12.40;99.90
52103;DHT22;38101;53.126;6.878;2023-11-19T12:43:38;12.40;99.90
52103;DHT22;38101;53.126;6.878;2023-11-19T12:46:18;12.40;99.90
52103;DHT22;38101;53.126;6.878;2023-11-19T12:48:46;12.30;99.90
52103;DHT22;38101;53.126;6.878;2023-11-19T12:51:12;12.30;99.90
52103;DHT22;38101;53.126;6.878;2023-11-19T12:53:48;12.30;99.90
52103;DHT22;38101;53.126;6.878;2023-11-19T12:56:20;12.40;99.90
52103;DHT22;38101;53.126;6.878;2023-11-19T12:58:47;12.30;99.90
52103;DHT22;38101;53.126;6.878;2023-11-19T13:01:19;12.40;99.90
52103;DHT22;38101;53.126;6.878;2023-11-19T13:03:46;12.40;99.90
52103;DHT22;38101;53.126;6.878;2023-11-19T13:06:13;12.30;99.90
52103;DHT22;38101;53.126;6.878;2023-11-19T13:08:44;12.40;99.90
52103;DHT22;38101;53.126;6.878;2023-11-19T13:11:11;12.40;99.90
52103;DHT22;38101;53.126;6.878;2023-11-19T13:13:56;12.40;99.90
52103;DHT22;38101;53.126;6.878;2023-11-19T13:16:23;12.30;99.90
52103;DHT22;38101;53.126;6.878;2023-11-19T13:18:49;12.30;99.90
52103;DHT22;38101;53.126;6.878;2023-11-19T13:21:15;12.30;99.90
52103;DHT22;38101;53.126;6.878;2023-11-19T13:23:40;12.40;99.90
52103;DHT22;38101;53.126;6.878;2023-11-19T13:26:06;12.40;99.90
52103;DHT22;38101;53.126;6.878;2023-11-19T13:28:32;12.40;99.90
52103;DHT22;38101;53.126;6.878;2023-11-19T13:30:58;12.40;99.90
52103;DHT22;38101;53.126;6.878;2023-11-19T13:33:24;12.40;99.90
52103;DHT22;38101;53.126;6.878;2023-11-19T13:35:49;12.40;99.90
52103;DHT22;38101;53.126;6.878;2023-11-19T13:38:15;12.40;99.90
52103;DHT22;38101;53.126;6.878;2023-11-19T13:40:41;12.40;99.90
52103;DHT22;38101;53.126;6.878;2023-11-19T13:43:06;12.40;99.90
52103;DHT22;38101;53.126;6.878;2023-11-19T13:45:33;12.30;99.90
52103;DHT22;38101;53.126;6.878;2023-11-19T13:47:58;12.30;99.90
52103;DHT22;38101;53.126;6.878;2023-11-19T13:50:24;12.30;99.90
52103;DHT22;38101;53.126;6.878;2023-11-19T13:52:50;12.40;99.90
52103;DHT22;38101;53.126;6.878;2023-11-19T13:55:16;12.30;99.90
52103;DHT22;38101;53.126;6.878;2023-11-19T13:57:42;12.30;99.90
52103;DHT22;38101;53.126;6.878;2023-11-19T14:00:10;12.30;99.90
52103;DHT22;38101;53.126;6.878;2023-11-19T14:02:42;12.30;99.90
52103;DHT22;38101;53.126;6.878;2023-11-19T14:05:11;12.30;99.90
52103;DHT22;38101;53.126;6.878;2023-11-19T14:07:38;12.30;99.90
52103;DHT22;38101;53.126;6.878;2023-11-19T14:10:04;12.20;99.90
52103;DHT22;38101;53.126;6.878;2023-11-19T14:12:34;12.20;99.90
52103;DHT22;38101;53.126;6.878;2023-11-19T14:15:02;12.20;99.90
52103;DHT22;38101;53.126;6.878;2023-11-19T14:17:28;12.20;99.90
52103;DHT22;38101;53.126;6.878;2023-11-19T14:19:53;12.20;99.90
52103;DHT22;38101;53.126;6.878;2023-11-19T14:22:19;12.20;99.90
52103;DHT22;38101;53.126;6.878;2023-11-19T14:24:45;12.30;99.90
52103;DHT22;38101;53.126;6.878;2023-11-19T14:27:10;12.20;99.90
52103;DHT22;38101;53.126;6.878;2023-11-19T14:29:36;12.30;99.90
52103;DHT22;38101;53.126;6.878;2023-11-19T14:32:03;12.30;99.90
52103;DHT22;38101;53.126;6.878;2023-11-19T14:34:32;12.30;99.90
52103;DHT22;38101;53.126;6.878;2023-11-19T14:36:59;12.20;99.90
52103;DHT22;38101;53.126;6.878;2023-11-19T14:39:26;12.20;99.90
52103;DHT22;38101;53.126;6.878;2023-11-19T14:41:51;12.10;99.90
52103;DHT22;38101;53.126;6.878;2023-11-19T14:44:19;12.10;99.90
52103;DHT22;38101;53.126;6.878;2023-11-19T14:46:46;12.10;99.90
52103;DHT22;38101;53.126;6.878;2023-11-19T14:49:12;12.00;99.90
52103;DHT22;38101;53.126;6.878;2023-11-19T14:51:42;12.00;99.90
52103;DHT22;38101;53.126;6.878;2023-11-19T14:54:07;12.10;99.90
52103;DHT22;38101;53.126;6.878;2023-11-19T14:56:33;12.00;99.90
52103;DHT22;38101;53.126;6.878;2023-11-19T14:58:59;12.00;99.90
52103;DHT22;38101;53.126;6.878;2023-11-19T15:01:25;12.00;99.90
52103;DHT22;38101;53.126;6.878;2023-11-19T15:03:51;12.00;99.90
52103;DHT22;38101;53.126;6.878;2023-11-19T15:06:17;11.90;99.90
52103;DHT22;38101;53.126;6.878;2023-11-19T15:08:42;11.90;99.90
52103;DHT22;38101;53.126;6.878;2023-11-19T15:11:10;11.90;99.90
52103;DHT22;38101;53.126;6.878;2023-11-19T15:13:37;11.90;99.90
52103;DHT22;38101;53.126;6.878;2023-11-19T15:16:04;11.90;99.90
52103;DHT22;38101;53.126;6.878;2023-11-19T15:18:36;11.90;99.90
52103;DHT22;38101;53.126;6.878;2023-11-19T15:21:02;11.90;99.90
52103;DHT22;38101;53.126;6.878;2023-11-19T15:23:27;11.90;99.90
52103;DHT22;38101;53.126;6.878;2023-11-19T15:25:54;11.90;99.90
52103;DHT22;38101;53.126;6.878;2023-11-19T15:28:21;11.90;99.90
52103;DHT22;38101;53.126;6.878;2023-11-19T15:30:47;11.90;99.90
52103;DHT22;38101;53.126;6.878;2023-11-19T15:33:13;11.90;99.90
52103;DHT22;38101;53.126;6.878;2023-11-19T15:35:38;12.00;99.90
52103;DHT22;38101;53.126;6.878;2023-11-19T15:38:05;12.00;99.90
52103;DHT22;38101;53.126;6.878;2023-11-19T15:40:32;12.00;99.90
52103;DHT22;38101;53.126;6.878;2023-11-19T15:42:58;12.00;99.90
52103;DHT22;38101;53.126;6.878;2023-11-19T15:45:24;11.90;99.90
52103;DHT22;38101;53.126;6.878;2023-11-19T15:47:50;11.90;99.90
52103;DHT22;38101;53.126;6.878;2023-11-19T15:50:15;11.90;99.90
52103;DHT22;38101;53.126;6.878;2023-11-19T15:52:41;11.90;99.90
52103;DHT22;38101;53.126;6.878;2023-11-19T15:55:09;11.90;99.90